Time;durP1;ratioP1;P1;durP2;ratioP2;P2;SDS_P1;SDS_P2;PMS_P1;PMS_P2;Temp;Humidity;BMP_temperature;BMP_pressure;BME280_temperature;BME280_humidity;BME280_pressure;Samples;Min_cycle;Max_cycle;Signal;HPM_P1;HPM_P2
2023/08/11 00:00:30;;;;;;;4.70;2.50;;;;;;;;;;5025342;28;20613;-72
2023/08/11 00:02:56;;;;;;;5.00;2.60;;;;;;;;;;5037896;28;20474;-72
2023/08/11 00:05:22;;;;;;;3.38;2.83;;;;;;;;;;5023350;28;20068;-73
2023/08/11 00:07:51;;;;;;;5.80;3.55;;;;;;;;;;5025357;28;20038;-74
2023/08/11 00:10:20;;;;;;;5.60;4.00;;;;;;;;;;5028582;28;20113;-74
2023/08/11 00:12:47;;;;;;;5.38;3.33;;;;;;;;;;5024859;28;20031;-74
2023/08/11 00:15:13;;;;;;;8.45;3.17;;;;;;;;;;5023065;28;20521;-74
2023/08/11 00:17:40;;;;;;;4.72;3.03;;;;;;;;;;5024165;28;20025;-74
2023/08/11 00:20:08;;;;;;;7.20;3.63;;;;;;;;;;5039160;28;20041;-74
2023/08/11 00:22:34;;;;;;;4.68;4.15;;;;;;;;;;5020956;28;20056;-74
2023/08/11 00:25:00;;;;;;;7.40;3.70;;;;;;;;;;5025971;28;20471;-72
2023/08/11 00:27:27;;;;;;;6.38;3.65;;;;;;;;;;5026906;28;20083;-73
2023/08/11 00:29:54;;;;;;;8.70;4.32;;;;;;;;;;5040053;28;20040;-73
2023/08/11 00:32:20;;;;;;;6.35;5.72;;;;;;;;;;5022836;28;20466;-72
2023/08/11 00:34:47;;;;;;;7.88;4.90;;;;;;;;;;5023392;28;20041;-73
2023/08/11 00:37:13;;;;;;;5.13;4.63;;;;;;;;;;5025896;28;20033;-73
2023/08/11 00:39:39;;;;;;;10.73;5.63;;;;;;;;;;5023317;28;20044;-73
2023/08/11 00:42:05;;;;;;;9.70;4.85;;;;;;;;;;5025925;28;20052;-73
2023/08/11 00:44:31;;;;;;;9.10;4.85;;;;;;;;;;5023239;28;20048;-73
2023/08/11 00:46:58;;;;;;;7.80;5.90;;;;;;;;;;5023329;28;20048;-73
2023/08/11 00:49:24;;;;;;;13.25;6.35;;;;;;;;;;5025732;28;20055;-72
2023/08/11 00:51:51;;;;;;;7.68;6.25;;;;;;;;;;5024252;28;20076;-73
2023/08/11 00:54:17;;;;;;;7.88;5.60;;;;;;;;;;5023937;28;20522;-73
2023/08/11 00:56:44;;;;;;;6.10;5.20;;;;;;;;;;5022929;28;20064;-72
2023/08/11 00:59:12;;;;;;;7.25;5.88;;;;;;;;;;5022820;28;20475;-73
2023/08/11 01:01:40;;;;;;;7.22;6.53;;;;;;;;;;5021414;28;20021;-74
2023/08/11 01:04:07;;;;;;;9.65;6.93;;;;;;;;;;5021215;28;20120;-73
2023/08/11 01:06:39;;;;;;;9.85;7.13;;;;;;;;;;5022222;28;20036;-73
2023/08/11 01:09:13;;;;;;;10.18;7.45;;;;;;;;;;5022688;28;20113;-73
2023/08/11 01:11:58;;;;;;;8.70;6.93;;;;;;;;;;5023534;28;20030;-73
2023/08/11 01:14:27;;;;;;;13.10;7.40;;;;;;;;;;5023599;28;20044;-73
2023/08/11 01:16:54;;;;;;;11.05;7.38;;;;;;;;;;5040304;28;20203;-73
2023/08/11 01:19:34;;;;;;;9.30;7.45;;;;;;;;;;5022141;28;20140;-73
2023/08/11 01:22:02;;;;;;;10.40;7.60;;;;;;;;;;5024422;28;20034;-73
2023/08/11 01:24:29;;;;;;;9.13;7.93;;;;;;;;;;5036237;28;20030;-73
2023/08/11 01:26:55;;;;;;;13.07;7.80;;;;;;;;;;5022121;28;20087;-73
2023/08/11 01:29:21;;;;;;;12.40;8.40;;;;;;;;;;5023702;28;20041;-73
2023/08/11 01:31:47;;;;;;;10.15;8.52;;;;;;;;;;5007148;28;20624;-73
2023/08/11 01:34:13;;;;;;;15.25;9.25;;;;;;;;;;5026030;28;20482;-73
2023/08/11 01:36:41;;;;;;;10.63;8.27;;;;;;;;;;5024296;28;20038;-73
2023/08/11 01:39:09;;;;;;;11.40;9.05;;;;;;;;;;5024930;28;20124;-74
2023/08/11 01:41:35;;;;;;;13.82;8.93;;;;;;;;;;5037664;28;20026;-73
2023/08/11 01:44:02;;;;;;;12.05;8.50;;;;;;;;;;5022956;28;20032;-73
2023/08/11 01:46:29;;;;;;;15.55;9.60;;;;;;;;;;5036905;28;20060;-73
2023/08/11 01:48:56;;;;;;;10.45;8.95;;;;;;;;;;5021828;28;20041;-72
2023/08/11 01:51:23;;;;;;;14.77;9.90;;;;;;;;;;5023699;28;20036;-73
2023/08/11 01:53:50;;;;;;;11.43;9.65;;;;;;;;;;5024735;28;20034;-73
2023/08/11 01:56:16;;;;;;;13.50;9.35;;;;;;;;;;5024113;28;20419;-74
2023/08/11 01:58:42;;;;;;;10.93;9.52;;;;;;;;;;5023340;28;20484;-73
2023/08/11 02:01:08;;;;;;;13.63;9.77;;;;;;;;;;5024113;28;20048;-74
2023/08/11 02:03:34;;;;;;;14.10;9.48;;;;;;;;;;5022621;28;20057;-73
2023/08/11 02:06:00;;;;;;;13.15;10.15;;;;;;;;;;5023692;28;20049;-74
2023/08/11 02:08:26;;;;;;;15.02;9.88;;;;;;;;;;5020726;28;20525;-74
2023/08/11 02:10:53;;;;;;;13.25;10.27;;;;;;;;;;5023180;28;20021;-73
2023/08/11 02:13:19;;;;;;;21.60;10.85;;;;;;;;;;5021889;28;20091;-74
2023/08/11 02:15:45;;;;;;;17.45;10.25;;;;;;;;;;5023866;28;20120;-73
2023/08/11 02:18:11;;;;;;;14.32;10.60;;;;;;;;;;5022521;28;20057;-73
2023/08/11 02:20:37;;;;;;;13.65;10.90;;;;;;;;;;5024511;28;20497;-74
2023/08/11 02:23:03;;;;;;;14.95;10.75;;;;;;;;;;5023279;28;20037;-73
2023/08/11 02:25:29;;;;;;;11.88;10.52;;;;;;;;;;5021802;28;20038;-73
2023/08/11 02:27:56;;;;;;;20.17;11.02;;;;;;;;;;5022622;28;20026;-73
2023/08/11 02:30:22;;;;;;;17.30;11.30;;;;;;;;;;5021594;28;20424;-73
2023/08/11 02:32:50;;;;;;;13.43;10.75;;;;;;;;;;5022117;28;20112;-73
2023/08/11 02:35:17;;;;;;;13.95;9.88;;;;;;;;;;5023683;28;20025;-73
2023/08/11 02:37:43;;;;;;;14.38;10.32;;;;;;;;;;5023191;28;20125;-73
2023/08/11 02:40:10;;;;;;;14.05;10.75;;;;;;;;;;5023745;28;20184;-74
2023/08/11 02:42:39;;;;;;;15.05;10.90;;;;;;;;;;5023289;28;20673;-74
2023/08/11 02:45:09;;;;;;;13.20;10.55;;;;;;;;;;5022742;28;20501;-74
2023/08/11 02:47:35;;;;;;;19.38;11.23;;;;;;;;;;5024752;28;20048;-73
2023/08/11 02:50:01;;;;;;;16.88;11.13;;;;;;;;;;5023589;28;20095;-73
2023/08/11 02:52:28;;;;;;;15.10;10.68;;;;;;;;;;5023241;28;20040;-74
2023/08/11 02:54:54;;;;;;;14.18;11.07;;;;;;;;;;5023096;28;20041;-73
2023/08/11 02:57:19;;;;;;;12.60;10.55;;;;;;;;;;5023541;28;20562;-73
2023/08/11 02:59:49;;;;;;;12.35;10.77;;;;;;;;;;5022244;28;20018;-73
2023/08/11 03:02:15;;;;;;;16.52;11.55;;;;;;;;;;5022429;28;20059;-74
2023/08/11 03:04:41;;;;;;;13.40;11.13;;;;;;;;;;5021508;28;20080;-73
2023/08/11 03:07:09;;;;;;;13.70;12.30;;;;;;;;;;5004050;28;20068;-73
2023/08/11 03:09:35;;;;;;;15.15;11.40;;;;;;;;;;5038849;28;20036;-74
2023/08/11 03:12:01;;;;;;;16.13;11.77;;;;;;;;;;5022623;28;20025;-74
2023/08/11 03:14:27;;;;;;;15.18;11.35;;;;;;;;;;5021888;28;20471;-74
2023/08/11 03:16:53;;;;;;;12.40;10.90;;;;;;;;;;5023274;28;20035;-73
2023/08/11 03:19:19;;;;;;;12.82;11.05;;;;;;;;;;4998895;28;20045;-74
2023/08/11 03:21:46;;;;;;;16.52;11.63;;;;;;;;;;5017262;28;20218;-75
2023/08/11 03:24:12;;;;;;;12.98;11.68;;;;;;;;;;5021421;28;20041;-73
2023/08/11 03:26:38;;;;;;;15.20;11.65;;;;;;;;;;5025532;28;20107;-72
2023/08/11 03:29:04;;;;;;;15.75;11.98;;;;;;;;;;5023576;28;20025;-72
2023/08/11 03:31:30;;;;;;;16.73;11.30;;;;;;;;;;5026423;28;20091;-73
2023/08/11 03:33:56;;;;;;;15.23;11.25;;;;;;;;;;5026762;28;20038;-72
2023/08/11 03:36:23;;;;;;;19.80;11.77;;;;;;;;;;5024986;28;20041;-72
2023/08/11 03:38:49;;;;;;;13.32;10.68;;;;;;;;;;5026834;28;20037;-72
2023/08/11 03:41:15;;;;;;;14.23;11.02;;;;;;;;;;5024466;28;20052;-73
2023/08/11 03:43:41;;;;;;;15.02;12.30;;;;;;;;;;5027832;28;20034;-72
2023/08/11 03:46:07;;;;;;;16.73;10.60;;;;;;;;;;5026343;28;20049;-74
2023/08/11 03:48:33;;;;;;;15.40;11.05;;;;;;;;;;5030452;28;20526;-73
2023/08/11 03:51:00;;;;;;;15.27;11.30;;;;;;;;;;5025851;28;20033;-73
2023/08/11 03:53:26;;;;;;;12.45;10.70;;;;;;;;;;5025540;28;20383;-73
2023/08/11 03:55:52;;;;;;;18.67;10.85;;;;;;;;;;5023125;28;20618;-73
2023/08/11 03:58:18;;;;;;;15.55;9.93;;;;;;;;;;5025472;28;20048;-74
2023/08/11 04:00:44;;;;;;;11.70;10.07;;;;;;;;;;5023144;28;20163;-75
2023/08/11 04:03:10;;;;;;;14.07;10.88;;;;;;;;;;5025175;28;21848;-74
2023/08/11 04:05:36;;;;;;;14.35;10.35;;;;;;;;;;5036205;28;20163;-73
2023/08/11 04:08:04;;;;;;;13.68;9.77;;;;;;;;;;5023174;28;20041;-74
2023/08/11 04:10:30;;;;;;;12.35;9.40;;;;;;;;;;5024236;28;20530;-74
2023/08/11 04:12:56;;;;;;;12.23;10.55;;;;;;;;;;5024653;28;20057;-73
2023/08/11 04:15:22;;;;;;;15.68;9.98;;;;;;;;;;5025812;28;20087;-74
2023/08/11 04:17:48;;;;;;;13.15;10.90;;;;;;;;;;5025504;28;20033;-74
2023/08/11 04:20:15;;;;;;;14.48;9.77;;;;;;;;;;5024049;28;20725;-73
2023/08/11 04:22:41;;;;;;;12.90;9.50;;;;;;;;;;5026711;28;20037;-73
2023/08/11 04:25:09;;;;;;;19.13;10.15;;;;;;;;;;5026024;28;20029;-74
2023/08/11 04:27:35;;;;;;;18.55;10.40;;;;;;;;;;5020441;28;20038;-73
2023/08/11 04:30:02;;;;;;;13.38;10.05;;;;;;;;;;5024482;28;20487;-73
2023/08/11 04:32:28;;;;;;;15.18;10.00;;;;;;;;;;5024945;28;20030;-73
2023/08/11 04:34:54;;;;;;;12.07;9.43;;;;;;;;;;5035472;28;20751;-73
2023/08/11 04:37:20;;;;;;;12.90;9.75;;;;;;;;;;5025120;28;20045;-74
2023/08/11 04:39:46;;;;;;;11.25;9.07;;;;;;;;;;5024305;28;20095;-74
2023/08/11 04:42:15;;;;;;;12.25;9.27;;;;;;;;;;5023678;28;20378;-73
2023/08/11 04:44:41;;;;;;;14.23;9.73;;;;;;;;;;5023335;28;20072;-73
2023/08/11 04:47:07;;;;;;;12.30;9.45;;;;;;;;;;5023922;28;20611;-73
2023/08/11 04:49:33;;;;;;;12.35;8.73;;;;;;;;;;5024043;28;20034;-73
2023/08/11 04:51:59;;;;;;;14.07;8.95;;;;;;;;;;5021927;28;20399;-74
2023/08/11 04:54:25;;;;;;;14.10;10.15;;;;;;;;;;5021661;28;20033;-73
2023/08/11 04:56:52;;;;;;;12.88;9.20;;;;;;;;;;5024329;28;20033;-74
2023/08/11 04:59:21;;;;;;;15.40;9.27;;;;;;;;;;5021693;28;20037;-75
2023/08/11 05:01:48;;;;;;;11.13;8.98;;;;;;;;;;5021965;28;20029;-74
2023/08/11 05:04:14;;;;;;;10.50;9.38;;;;;;;;;;5024918;28;20025;-73
2023/08/11 05:06:40;;;;;;;13.02;9.02;;;;;;;;;;5024714;28;20056;-74
2023/08/11 05:09:07;;;;;;;9.43;8.50;;;;;;;;;;5025005;28;20040;-74
2023/08/11 05:11:33;;;;;;;10.13;8.43;;;;;;;;;;5022457;28;20034;-75
2023/08/11 05:13:58;;;;;;;14.50;8.25;;;;;;;;;;5024735;28;20048;-73
2023/08/11 05:16:24;;;;;;;11.50;9.27;;;;;;;;;;5023745;28;20513;-73
2023/08/11 05:18:51;;;;;;;11.75;8.70;;;;;;;;;;5022155;28;20034;-73
2023/08/11 05:21:17;;;;;;;13.82;8.95;;;;;;;;;;5016964;28;20037;-73
2023/08/11 05:23:43;;;;;;;10.60;8.90;;;;;;;;;;5022723;28;20036;-73
2023/08/11 05:26:09;;;;;;;11.00;8.68;;;;;;;;;;5022462;28;20033;-73
2023/08/11 05:28:35;;;;;;;12.82;8.32;;;;;;;;;;5023867;28;20037;-73
2023/08/11 05:31:04;;;;;;;9.88;7.82;;;;;;;;;;5024527;28;20419;-73
2023/08/11 05:33:30;;;;;;;10.27;7.55;;;;;;;;;;5023337;28;20531;-74
2023/08/11 05:35:56;;;;;;;13.23;8.27;;;;;;;;;;5022941;28;20049;-73
2023/08/11 05:38:23;;;;;;;12.35;7.97;;;;;;;;;;5020255;28;20037;-74
2023/08/11 05:40:52;;;;;;;11.07;7.63;;;;;;;;;;5021068;28;20068;-73
2023/08/11 05:43:18;;;;;;;8.25;6.97;;;;;;;;;;5020940;28;20487;-74
2023/08/11 05:45:44;;;;;;;9.25;7.07;;;;;;;;;;5020301;28;20461;-74
2023/08/11 05:48:10;;;;;;;11.32;7.82;;;;;;;;;;5014708;28;20040;-76
2023/08/11 05:50:39;;;;;;;7.32;6.57;;;;;;;;;;5020665;28;20033;-76
2023/08/11 05:53:05;;;;;;;8.20;7.32;;;;;;;;;;5019915;28;20701;-75
2023/08/11 05:55:31;;;;;;;9.77;6.82;;;;;;;;;;5035921;28;20375;-73
2023/08/11 05:57:57;;;;;;;12.85;8.35;;;;;;;;;;5023025;28;20037;-76
2023/08/11 06:00:23;;;;;;;28.08;18.70;;;;;;;;;;5024677;28;20034;-73
2023/08/11 06:02:49;;;;;;;12.35;9.68;;;;;;;;;;5026173;28;20030;-74
2023/08/11 06:05:15;;;;;;;16.45;10.57;;;;;;;;;;5037063;28;20075;-74
2023/08/11 06:07:42;;;;;;;10.85;8.02;;;;;;;;;;5020567;28;20033;-73
2023/08/11 06:10:08;;;;;;;7.80;7.07;;;;;;;;;;5024685;28;20132;-73
2023/08/11 06:12:34;;;;;;;11.25;7.07;;;;;;;;;;5021787;28;20033;-75
2023/08/11 06:15:00;;;;;;;9.77;7.10;;;;;;;;;;5014056;28;20037;-76
2023/08/11 06:17:26;;;;;;;14.07;7.63;;;;;;;;;;5019953;28;20038;-77
2023/08/11 06:19:52;;;;;;;12.27;7.50;;;;;;;;;;5021848;28;20026;-77
2023/08/11 06:22:18;;;;;;;8.80;6.50;;;;;;;;;;5019921;28;20082;-78
2023/08/11 06:24:44;;;;;;;7.95;6.38;;;;;;;;;;5019930;28;20144;-77
2023/08/11 06:27:10;;;;;;;7.60;6.13;;;;;;;;;;5016283;28;20041;-77
2023/08/11 06:29:36;;;;;;;9.45;8.30;;;;;;;;;;5021017;28;20034;-77
2023/08/11 06:32:03;;;;;;;10.68;8.25;;;;;;;;;;5023841;28;20025;-79
2023/08/11 06:34:29;;;;;;;9.23;7.40;;;;;;;;;;5027087;28;20060;-77
2023/08/11 06:36:55;;;;;;;19.38;8.05;;;;;;;;;;5021070;28;20076;-75
2023/08/11 06:39:21;;;;;;;8.48;6.45;;;;;;;;;;5019172;28;20416;-77
2023/08/11 06:41:47;;;;;;;9.68;6.63;;;;;;;;;;5022536;28;20099;-77
2023/08/11 06:44:13;;;;;;;9.32;5.88;;;;;;;;;;5021509;28;20029;-79
2023/08/11 06:46:39;;;;;;;9.73;7.40;;;;;;;;;;5018612;28;20370;-76
2023/08/11 06:49:05;;;;;;;15.18;7.47;;;;;;;;;;5020393;28;20183;-76
2023/08/11 06:51:31;;;;;;;9.48;6.30;;;;;;;;;;5021516;28;20026;-77
2023/08/11 06:53:57;;;;;;;8.27;6.28;;;;;;;;;;5023024;28;20578;-77
2023/08/11 06:56:23;;;;;;;12.65;7.03;;;;;;;;;;5019604;28;20288;-78
2023/08/11 06:58:49;;;;;;;6.90;5.47;;;;;;;;;;5021798;28;20049;-78
2023/08/11 07:01:17;;;;;;;10.18;6.32;;;;;;;;;;5018878;28;20683;-76
2023/08/11 07:03:44;;;;;;;7.07;5.90;;;;;;;;;;5024426;28;20041;-74
2023/08/11 07:06:11;;;;;;;12.50;5.95;;;;;;;;;;5042538;28;20542;-74
2023/08/11 07:08:37;;;;;;;6.70;5.85;;;;;;;;;;5024289;28;20037;-75
2023/08/11 07:11:03;;;;;;;7.05;5.03;;;;;;;;;;5026788;28;20083;-77
2023/08/11 07:13:29;;;;;;;8.25;5.43;;;;;;;;;;5006616;28;20045;-76
2023/08/11 07:15:56;;;;;;;6.65;4.85;;;;;;;;;;5023977;28;20035;-76
2023/08/11 07:18:23;;;;;;;26.30;15.25;;;;;;;;;;5023366;28;20029;-76
2023/08/11 07:20:49;;;;;;;7.90;5.50;;;;;;;;;;5023769;28;20044;-75
2023/08/11 07:23:16;;;;;;;7.40;5.20;;;;;;;;;;5021445;28;22546;-76
2023/08/11 07:25:42;;;;;;;9.80;5.05;;;;;;;;;;5013254;28;20772;-75
2023/08/11 07:28:08;;;;;;;7.45;5.45;;;;;;;;;;5017668;28;20045;-75
2023/08/11 07:30:36;;;;;;;7.85;5.35;;;;;;;;;;5007442;28;20029;-75
2023/08/11 07:33:02;;;;;;;9.75;5.45;;;;;;;;;;5019882;28;20048;-76
2023/08/11 07:35:28;;;;;;;9.38;5.28;;;;;;;;;;5025619;28;20045;-75
2023/08/11 07:37:54;;;;;;;9.70;4.78;;;;;;;;;;5036021;28;20056;-74
2023/08/11 07:40:20;;;;;;;10.20;5.00;;;;;;;;;;5023871;28;20106;-74
2023/08/11 07:42:47;;;;;;;8.80;5.53;;;;;;;;;;5036971;28;20049;-73
2023/08/11 07:45:13;;;;;;;6.50;4.50;;;;;;;;;;5023067;28;20139;-74
2023/08/11 07:47:39;;;;;;;11.63;5.00;;;;;;;;;;5020999;28;20506;-73
2023/08/11 07:50:06;;;;;;;8.13;4.65;;;;;;;;;;5023973;28;20034;-74
2023/08/11 07:52:32;;;;;;;9.43;4.53;;;;;;;;;;5019155;28;20433;-75
2023/08/11 07:54:58;;;;;;;7.43;4.47;;;;;;;;;;5019169;28;20479;-75
2023/08/11 07:57:24;;;;;;;6.65;4.20;;;;;;;;;;5021613;28;20037;-75
2023/08/11 07:59:51;;;;;;;8.60;3.95;;;;;;;;;;5022062;28;20037;-74
2023/08/11 08:02:17;;;;;;;8.18;4.00;;;;;;;;;;5024054;28;20052;-73
2023/08/11 08:04:43;;;;;;;10.48;4.07;;;;;;;;;;5023938;28;20517;-83
2023/08/11 08:07:10;;;;;;;10.57;5.82;;;;;;;;;;5034647;28;20095;-83
2023/08/11 08:09:38;;;;;;;8.23;3.72;;;;;;;;;;5029377;28;20405;-76
2023/08/11 08:12:05;;;;;;;9.05;3.63;;;;;;;;;;5025531;28;20032;-75
2023/08/11 08:14:31;;;;;;;5.28;3.30;;;;;;;;;;5022518;28;20049;-73
2023/08/11 08:17:01;;;;;;;6.82;3.70;;;;;;;;;;5020040;28;20050;-74
2023/08/11 08:19:27;;;;;;;4.40;3.38;;;;;;;;;;5024061;28;20154;-74
2023/08/11 08:21:53;;;;;;;8.73;3.70;;;;;;;;;;5027313;28;20498;-74
2023/08/11 08:24:19;;;;;;;7.07;3.70;;;;;;;;;;5022368;28;20752;-74
2023/08/11 08:26:47;;;;;;;5.53;3.35;;;;;;;;;;5025698;28;20475;-74
2023/08/11 08:29:14;;;;;;;7.20;3.33;;;;;;;;;;5024325;28;20467;-74
2023/08/11 08:31:40;;;;;;;5.82;3.60;;;;;;;;;;5020042;28;20058;-75
2023/08/11 08:34:06;;;;;;;11.98;3.95;;;;;;;;;;5021788;28;20040;-74
2023/08/11 08:36:32;;;;;;;6.63;3.03;;;;;;;;;;5024749;28;20129;-74
2023/08/11 08:38:58;;;;;;;6.68;3.30;;;;;;;;;;5025075;28;20128;-74
2023/08/11 08:41:28;;;;;;;6.72;3.38;;;;;;;;;;5025504;28;20045;-74
2023/08/11 08:43:57;;;;;;;5.32;2.78;;;;;;;;;;5015696;28;20109;-74
2023/08/11 08:46:28;;;;;;;6.03;2.97;;;;;;;;;;5024638;28;20060;-74
2023/08/11 08:49:04;;;;;;;9.82;3.60;;;;;;;;;;5024575;28;20030;-74
2023/08/11 08:51:30;;;;;;;7.75;2.88;;;;;;;;;;5025575;28;20068;-74
2023/08/11 08:53:57;;;;;;;9.15;3.67;;;;;;;;;;5025698;28;20029;-74
2023/08/11 08:56:23;;;;;;;5.32;3.10;;;;;;;;;;5026275;28;20065;-74
2023/08/11 08:58:49;;;;;;;3.92;3.15;;;;;;;;;;5023974;28;20037;-74
2023/08/11 09:01:16;;;;;;;6.57;4.00;;;;;;;;;;5026011;28;20041;-75
2023/08/11 09:03:43;;;;;;;8.27;3.17;;;;;;;;;;5038103;28;20033;-74
2023/08/11 09:06:10;;;;;;;6.60;3.15;;;;;;;;;;5023468;28;20037;-75
2023/08/11 09:08:40;;;;;;;7.88;3.70;;;;;;;;;;5024052;28;20025;-74
2023/08/11 09:11:07;;;;;;;5.85;3.70;;;;;;;;;;5021595;28;20033;-74
2023/08/11 09:13:33;;;;;;;5.15;3.17;;;;;;;;;;5025071;28;20033;-75
2023/08/11 09:16:00;;;;;;;6.05;3.55;;;;;;;;;;5025159;28;20277;-74
2023/08/11 09:18:26;;;;;;;6.70;3.20;;;;;;;;;;5022823;28;20033;-74
2023/08/11 09:20:53;;;;;;;5.13;3.20;;;;;;;;;;5017259;28;20029;-74
2023/08/11 09:23:19;;;;;;;7.70;2.95;;;;;;;;;;5024585;28;20083;-74
2023/08/11 09:25:49;;;;;;;5.30;3.05;;;;;;;;;;5021887;28;20022;-74
2023/08/11 09:28:15;;;;;;;9.07;3.53;;;;;;;;;;5024349;28;20125;-74
2023/08/11 09:30:42;;;;;;;7.72;2.55;;;;;;;;;;5025202;28;20097;-74
2023/08/11 09:33:09;;;;;;;5.28;2.95;;;;;;;;;;5023545;28;20113;-74
2023/08/11 09:35:35;;;;;;;5.32;2.85;;;;;;;;;;5022960;28;20923;-74
2023/08/11 09:38:01;;;;;;;9.23;2.70;;;;;;;;;;5022825;28;20037;-74
2023/08/11 09:40:27;;;;;;;5.25;2.65;;;;;;;;;;5022460;28;20128;-74
2023/08/11 09:42:57;;;;;;;4.55;3.33;;;;;;;;;;5023861;28;20033;-74
2023/08/11 09:45:23;;;;;;;4.68;2.95;;;;;;;;;;5023418;28;22127;-74
2023/08/11 09:47:50;;;;;;;5.38;3.22;;;;;;;;;;5039952;28;20064;-74
2023/08/11 09:50:16;;;;;;;6.78;3.10;;;;;;;;;;5023837;28;20048;-74
2023/08/11 09:52:43;;;;;;;11.23;2.63;;;;;;;;;;5024986;28;20091;-75
2023/08/11 09:55:13;;;;;;;4.55;2.58;;;;;;;;;;5022483;28;20072;-77
2023/08/11 09:57:43;;;;;;;5.25;2.80;;;;;;;;;;5019340;28;20048;-78
2023/08/11 10:00:12;;;;;;;3.28;2.08;;;;;;;;;;5023616;28;20035;-75
2023/08/11 10:02:40;;;;;;;6.90;2.60;;;;;;;;;;5018859;28;20037;-76
2023/08/11 10:05:08;;;;;;;7.75;2.17;;;;;;;;;;5021622;28;20029;-76
2023/08/11 10:07:35;;;;;;;9.10;2.55;;;;;;;;;;5035696;28;20030;-76
2023/08/11 10:10:05;;;;;;;6.88;2.38;;;;;;;;;;5024614;28;20064;-77
2023/08/11 10:12:31;;;;;;;5.03;2.15;;;;;;;;;;5018502;28;20030;-81
2023/08/11 10:14:58;;;;;;;8.50;2.90;;;;;;;;;;5020727;28;20069;-75
2023/08/11 10:17:24;;;;;;;5.90;2.25;;;;;;;;;;5024437;28;20120;-76
2023/08/11 10:19:51;;;;;;;6.88;2.42;;;;;;;;;;5019156;28;20027;-76
2023/08/11 10:22:17;;;;;;;9.50;2.40;;;;;;;;;;5021658;28;20039;-77
2023/08/11 10:24:44;;;;;;;8.00;2.00;;;;;;;;;;5021880;28;20103;-76
2023/08/11 10:27:10;;;;;;;5.78;2.33;;;;;;;;;;5016205;28;20088;-78
2023/08/11 10:29:37;;;;;;;5.05;2.60;;;;;;;;;;5020353;28;20048;-75
2023/08/11 10:32:04;;;;;;;6.22;2.40;;;;;;;;;;5021435;28;20244;-76
2023/08/11 10:34:31;;;;;;;3.67;2.50;;;;;;;;;;5019757;28;20108;-78
2023/08/11 10:36:57;;;;;;;5.95;2.60;;;;;;;;;;5021732;28;20450;-76
2023/08/11 10:39:24;;;;;;;6.93;2.70;;;;;;;;;;5021518;28;20396;-77
2023/08/11 10:41:50;;;;;;;5.43;2.53;;;;;;;;;;5024507;28;20029;-78
2023/08/11 10:44:18;;;;;;;9.63;2.92;;;;;;;;;;5019477;28;20021;-80
2023/08/11 10:46:45;;;;;;;4.22;2.20;;;;;;;;;;5019921;28;20062;-77
2023/08/11 10:49:11;;;;;;;4.72;2.30;;;;;;;;;;5022922;28;20625;-80
2023/08/11 10:51:38;;;;;;;5.95;2.72;;;;;;;;;;5022329;28;20036;-75
2023/08/11 10:54:09;;;;;;;15.00;9.68;;;;;;;;;;5021716;28;20052;-77
2023/08/11 10:56:36;;;;;;;5.00;2.83;;;;;;;;;;5027293;28;20044;-75
2023/08/11 10:59:15;;;;;;;9.05;3.70;;;;;;;;;;5027401;28;20116;-77
2023/08/11 11:01:42;;;;;;;4.53;3.60;;;;;;;;;;5024545;28;20029;-78
2023/08/11 11:04:09;;;;;;;6.30;2.60;;;;;;;;;;5023735;28;20450;-75
2023/08/11 11:06:35;;;;;;;5.65;2.58;;;;;;;;;;5013996;28;20033;-75
2023/08/11 11:09:03;;;;;;;6.40;3.08;;;;;;;;;;5022101;28;20103;-75
2023/08/11 11:11:30;;;;;;;7.25;2.83;;;;;;;;;;5016578;28;20030;-75
2023/08/11 11:13:56;;;;;;;7.30;2.67;;;;;;;;;;5017704;28;20044;-76
2023/08/11 11:16:22;;;;;;;14.50;9.13;;;;;;;;;;5020187;28;20072;-78
2023/08/11 11:18:49;;;;;;;8.85;6.22;;;;;;;;;;5038257;28;20061;-76
2023/08/11 11:21:16;;;;;;;3.97;2.58;;;;;;;;;;5019630;28;20635;-75
2023/08/11 11:23:49;;;;;;;3.53;2.60;;;;;;;;;;5019926;28;20026;-75
2023/08/11 11:26:16;;;;;;;3.30;2.55;;;;;;;;;;5027078;28;20029;-75
2023/08/11 11:28:42;;;;;;;6.93;2.42;;;;;;;;;;5025687;28;20080;-76
2023/08/11 11:31:08;;;;;;;6.75;2.72;;;;;;;;;;5024238;28;20041;-75
2023/08/11 11:33:34;;;;;;;6.78;2.45;;;;;;;;;;5024705;28;20037;-76
2023/08/11 11:36:00;;;;;;;2.92;2.22;;;;;;;;;;5027565;28;20296;-76
2023/08/11 11:38:26;;;;;;;3.70;2.85;;;;;;;;;;5018852;28;20454;-75
2023/08/11 11:40:52;;;;;;;5.25;2.80;;;;;;;;;;5024963;28;20161;-76
2023/08/11 11:43:19;;;;;;;3.58;2.42;;;;;;;;;;5027306;28;20140;-76
2023/08/11 11:45:47;;;;;;;7.75;3.33;;;;;;;;;;5026615;28;20033;-75
2023/08/11 11:48:13;;;;;;;11.88;3.03;;;;;;;;;;5027272;28;20402;-75
2023/08/11 11:50:39;;;;;;;3.95;2.63;;;;;;;;;;5028875;28;20037;-75
2023/08/11 11:53:06;;;;;;;8.43;2.75;;;;;;;;;;5030205;28;20132;-75
2023/08/11 11:55:32;;;;;;;6.68;2.70;;;;;;;;;;5028545;28;20037;-75
2023/08/11 11:57:58;;;;;;;7.05;3.13;;;;;;;;;;5032750;28;20041;-75
2023/08/11 12:00:25;;;;;;;4.93;3.03;;;;;;;;;;5023043;28;20550;-76
2023/08/11 12:02:53;;;;;;;7.43;2.53;;;;;;;;;;5028318;28;20038;-75
2023/08/11 12:05:21;;;;;;;9.95;2.60;;;;;;;;;;5028741;28;20033;-76
2023/08/11 12:07:47;;;;;;;7.13;2.50;;;;;;;;;;5026000;28;20036;-76
2023/08/11 12:10:15;;;;;;;7.30;2.15;;;;;;;;;;5028524;28;20041;-76
2023/08/11 12:12:42;;;;;;;8.60;2.83;;;;;;;;;;5030321;28;20417;-75
2023/08/11 12:15:08;;;;;;;4.00;2.28;;;;;;;;;;5028435;28;20620;-75
2023/08/11 12:17:35;;;;;;;5.75;2.45;;;;;;;;;;5044914;28;20042;-75
2023/08/11 12:20:03;;;;;;;5.05;2.70;;;;;;;;;;5028920;28;20121;-75
2023/08/11 12:22:29;;;;;;;6.15;2.10;;;;;;;;;;5028165;28;20025;-75
2023/08/11 12:24:56;;;;;;;8.57;2.42;;;;;;;;;;5028016;28;20041;-75
2023/08/11 12:27:22;;;;;;;4.60;2.30;;;;;;;;;;5029445;28;20045;-75
2023/08/11 12:29:48;;;;;;;8.73;3.35;;;;;;;;;;5028369;28;20467;-75
2023/08/11 12:32:14;;;;;;;5.05;2.90;;;;;;;;;;5027293;28;20048;-75
2023/08/11 12:34:40;;;;;;;5.78;2.13;;;;;;;;;;5029345;28;20038;-75
2023/08/11 12:37:07;;;;;;;6.78;2.28;;;;;;;;;;5028498;28;20112;-75
2023/08/11 12:39:33;;;;;;;3.90;2.00;;;;;;;;;;5022605;28;21178;-75
2023/08/11 12:41:59;;;;;;;7.78;2.42;;;;;;;;;;5022660;28;20101;-75
2023/08/11 12:44:25;;;;;;;5.18;2.50;;;;;;;;;;5042384;28;20116;-75
2023/08/11 12:46:51;;;;;;;4.38;2.20;;;;;;;;;;5029260;28;20065;-75
2023/08/11 12:49:17;;;;;;;5.75;2.15;;;;;;;;;;5028960;28;20088;-75
2023/08/11 12:51:44;;;;;;;2.45;2.25;;;;;;;;;;5010831;28;20044;-75
2023/08/11 12:54:10;;;;;;;5.03;2.35;;;;;;;;;;5029618;28;20134;-74
2023/08/11 12:56:36;;;;;;;3.92;2.42;;;;;;;;;;5035983;28;20567;-75
2023/08/11 12:59:03;;;;;;;4.05;2.40;;;;;;;;;;5028130;28;20039;-75
2023/08/11 13:01:29;;;;;;;4.20;2.17;;;;;;;;;;5025550;28;20038;-75
2023/08/11 13:03:56;;;;;;;5.88;2.28;;;;;;;;;;5022694;28;20033;-74
2023/08/11 13:06:22;;;;;;;4.40;2.10;;;;;;;;;;5016860;28;20056;-76
2023/08/11 13:08:50;;;;;;;9.18;2.67;;;;;;;;;;5019380;28;20033;-77
2023/08/11 13:11:16;;;;;;;4.20;1.92;;;;;;;;;;5021733;28;20056;-79
2023/08/11 13:13:42;;;;;;;5.68;2.00;;;;;;;;;;5020799;28;20487;-76
2023/08/11 13:16:08;;;;;;;4.30;1.70;;;;;;;;;;5035397;28;20499;-74
2023/08/11 13:18:34;;;;;;;6.65;1.88;;;;;;;;;;5015551;28;20037;-75
2023/08/11 13:21:00;;;;;;;5.55;2.00;;;;;;;;;;5016623;28;20060;-76
2023/08/11 13:23:29;;;;;;;8.93;2.25;;;;;;;;;;5022719;28;20033;-76
2023/08/11 13:25:55;;;;;;;6.70;2.00;;;;;;;;;;5016835;28;20030;-75
2023/08/11 13:28:21;;;;;;;11.15;7.68;;;;;;;;;;5024990;28;20044;-74
2023/08/11 13:30:47;;;;;;;6.75;3.40;;;;;;;;;;5028255;28;20026;-76
2023/08/11 13:33:13;;;;;;;8.38;2.78;;;;;;;;;;5018988;28;20498;-77
2023/08/11 13:35:39;;;;;;;4.93;1.80;;;;;;;;;;5028569;28;20032;-75
2023/08/11 13:38:06;;;;;;;1.77;1.52;;;;;;;;;;5022575;28;20046;-80
2023/08/11 13:40:32;;;;;;;2.17;1.50;;;;;;;;;;5015952;28;20133;-81
2023/08/11 13:42:58;;;;;;;6.45;1.73;;;;;;;;;;5021449;28;20034;-81
2023/08/11 13:45:24;;;;;;;4.10;1.60;;;;;;;;;;5035163;28;20037;-81
2023/08/11 13:47:50;;;;;;;5.00;1.50;;;;;;;;;;5022651;28;20042;-82
2023/08/11 13:50:16;;;;;;;4.30;1.90;;;;;;;;;;5021904;28;20438;-81
2023/08/11 13:52:43;;;;;;;3.20;1.88;;;;;;;;;;5036287;28;20104;-79
2023/08/11 13:55:09;;;;;;;5.60;1.92;;;;;;;;;;5018650;28;20032;-82
2023/08/11 13:57:35;;;;;;;7.78;2.00;;;;;;;;;;5019498;28;20061;-78
2023/08/11 14:00:05;;;;;;;6.72;4.70;;;;;;;;;;5021483;28;21247;-78
2023/08/11 14:02:31;;;;;;;9.65;6.13;;;;;;;;;;5019896;28;20053;-77
2023/08/11 14:04:57;;;;;;;3.80;2.28;;;;;;;;;;5021891;28;20080;-82
2023/08/11 14:07:23;;;;;;;4.75;1.90;;;;;;;;;;5028654;28;20112;-87
2023/08/11 14:09:49;;;;;;;2.33;2.10;;;;;;;;;;5023145;28;20112;-87
2023/08/11 14:12:17;;;;;;;7.43;2.50;;;;;;;;;;5020708;28;20033;-75
2023/08/11 14:14:43;;;;;;;4.82;2.13;;;;;;;;;;5027691;28;20041;-75
2023/08/11 14:17:09;;;;;;;5.78;2.40;;;;;;;;;;5027067;28;20437;-75
2023/08/11 14:19:35;;;;;;;5.13;2.50;;;;;;;;;;5026748;28;20109;-75
2023/08/11 14:22:01;;;;;;;6.05;2.20;;;;;;;;;;5027831;28;20575;-74
2023/08/11 14:24:27;;;;;;;7.88;2.53;;;;;;;;;;5027821;28;20056;-75
2023/08/11 14:26:53;;;;;;;4.88;2.25;;;;;;;;;;5022129;28;20106;-79
2023/08/11 14:29:19;;;;;;;10.93;2.35;;;;;;;;;;5018057;28;20029;-81
2023/08/11 14:31:45;;;;;;;7.53;2.75;;;;;;;;;;5020499;28;20479;-79